SKC248Y YSSY-NZAA
Flight info
| Callsign | SKC248Y |
|---|---|
| Flight time | 2h 48m |
| Altitude | 41000 |
| Route | SY3/34L 3358S15112E EVONN L521 LUNBI |
| Aircraft | B77L/H-SDE1E2E3FGHIJ2J3J4J5M1RWXY/LB1D1 |
Departure
| Time | 2026-04-25 06:58 |
|---|---|
| Airport | Sydney Kingsford Smith International Airport (YSSY) |
Arrival
| Time | 2026-04-25 09:46 |
|---|---|
| Airport | Auckland International Airport (NZAA) |
| Time | Latitude | Longitude | Altitude | Speed | Heading |
|---|---|---|---|---|---|
| 2026-04-25 06:32 | -33.93045 | 151.16772 | 34 ft | 0 kts | 257° |
| 2026-04-25 06:46 | -33.93044 | 151.16780 | 34 ft | 4 kts | 256° |
| 2026-04-25 06:46 | -33.93037 | 151.16811 | 31 ft | 4 kts | 250° |
| 2026-04-25 06:46 | -33.93026 | 151.16841 | 32 ft | 4 kts | 243° |
| 2026-04-25 06:46 | -33.93013 | 151.16869 | 34 ft | 4 kts | 232° |
| 2026-04-25 06:47 | -33.92994 | 151.16890 | 33 ft | 4 kts | 199° |
| 2026-04-25 06:47 | -33.92982 | 151.16893 | 33 ft | 0 kts | 167° |
| 2026-04-25 06:50 | -33.93027 | 151.16905 | 32 ft | 17 kts | 168° |
| 2026-04-25 06:51 | -33.93173 | 151.16943 | 34 ft | 24 kts | 167° |
| 2026-04-25 06:51 | -33.93295 | 151.17015 | 34 ft | 18 kts | 136° |
| 2026-04-25 06:51 | -33.93418 | 151.17082 | 33 ft | 22 kts | 167° |
| 2026-04-25 06:51 | -33.93565 | 151.17121 | 34 ft | 22 kts | 167° |
| 2026-04-25 06:52 | -33.93725 | 151.17162 | 34 ft | 25 kts | 169° |
| 2026-04-25 06:52 | -33.93904 | 151.17208 | 33 ft | 27 kts | 167° |
| 2026-04-25 06:52 | -33.94098 | 151.17260 | 33 ft | 30 kts | 167° |
| 2026-04-25 06:52 | -33.94308 | 151.17319 | 35 ft | 29 kts | 167° |
| 2026-04-25 06:53 | -33.94508 | 151.17366 | 35 ft | 30 kts | 167° |
| 2026-04-25 06:53 | -33.94719 | 151.17421 | 35 ft | 31 kts | 168° |
| 2026-04-25 06:53 | -33.94938 | 151.17476 | 34 ft | 33 kts | 168° |
| 2026-04-25 06:53 | -33.95164 | 151.17536 | 34 ft | 34 kts | 167° |
| 2026-04-25 06:54 | -33.95382 | 151.17594 | 34 ft | 32 kts | 169° |
| 2026-04-25 06:54 | -33.95602 | 151.17649 | 35 ft | 33 kts | 168° |
| 2026-04-25 06:54 | -33.95826 | 151.17707 | 35 ft | 33 kts | 167° |
| 2026-04-25 06:54 | -33.96055 | 151.17764 | 35 ft | 34 kts | 168° |
| 2026-04-25 06:55 | -33.96273 | 151.17824 | 35 ft | 26 kts | 168° |
| 2026-04-25 06:55 | -33.96411 | 151.17870 | 35 ft | 10 kts | 146° |
| 2026-04-25 06:55 | -33.96418 | 151.17877 | 35 ft | 2 kts | 137° |
| 2026-04-25 06:55 | -33.96419 | 151.17879 | 35 ft | 0 kts | 135° |
| 2026-04-25 06:56 | -33.96422 | 151.17883 | 35 ft | 3 kts | 132° |
| 2026-04-25 06:56 | -33.96434 | 151.17935 | 35 ft | 10 kts | 90° |
| 2026-04-25 06:56 | -33.96416 | 151.18028 | 34 ft | 13 kts | 71° |
| 2026-04-25 06:57 | -33.96387 | 151.18052 | 34 ft | 0 kts | 348° |
| 2026-04-25 06:57 | -33.96266 | 151.18021 | 34 ft | 61 kts | 348° |
| 2026-04-25 06:57 | -33.95538 | 151.17839 | 38 ft | 147 kts | 348° |
| 2026-04-25 06:58 | -33.94487 | 151.17497 | 676 ft | 157 kts | 343° |
| 2026-04-25 06:58 | -33.93439 | 151.17065 | 1692 ft | 158 kts | 346° |
| 2026-04-25 06:58 | -33.92354 | 151.16884 | 2631 ft | 161 kts | 1° |
| 2026-04-25 06:58 | -33.91174 | 151.16574 | 3090 ft | 195 kts | 326° |
| 2026-04-25 06:59 | -33.90193 | 151.15268 | 3458 ft | 229 kts | 309° |
| 2026-04-25 06:59 | -33.89132 | 151.13699 | 4147 ft | 250 kts | 311° |
| 2026-04-25 06:59 | -33.87973 | 151.12084 | 5186 ft | 261 kts | 312° |
| 2026-04-25 06:59 | -33.86734 | 151.10424 | 6202 ft | 272 kts | 313° |
| 2026-04-25 07:00 | -33.85421 | 151.08723 | 7190 ft | 282 kts | 313° |
| 2026-04-25 07:00 | -33.84058 | 151.07000 | 8319 ft | 286 kts | 314° |
| 2026-04-25 07:00 | -33.82659 | 151.05263 | 9408 ft | 292 kts | 314° |
| 2026-04-25 07:00 | -33.81220 | 151.03496 | 10452 ft | 300 kts | 315° |
| 2026-04-25 07:01 | -33.79715 | 151.01664 | 11018 ft | 326 kts | 315° |
| 2026-04-25 07:01 | -33.78209 | 150.99482 | 11245 ft | 357 kts | 300° |
| 2026-04-25 07:01 | -33.77228 | 150.96607 | 11732 ft | 383 kts | 284° |
| 2026-04-25 07:01 | -33.76821 | 150.93404 | 12789 ft | 393 kts | 272° |
| 2026-04-25 07:02 | -33.76939 | 150.90108 | 14062 ft | 398 kts | 261° |
| 2026-04-25 07:02 | -33.77570 | 150.86855 | 15179 ft | 403 kts | 250° |
| 2026-04-25 07:02 | -33.78702 | 150.83760 | 16295 ft | 407 kts | 239° |
| 2026-04-25 07:02 | -33.80296 | 150.80930 | 17381 ft | 412 kts | 229° |
| 2026-04-25 07:03 | -33.82314 | 150.78460 | 18452 ft | 417 kts | 218° |
| 2026-04-25 07:03 | -33.84718 | 150.76494 | 19396 ft | 420 kts | 203° |
| 2026-04-25 07:03 | -33.87533 | 150.75617 | 20344 ft | 420 kts | 182° |
| 2026-04-25 07:03 | -33.90438 | 150.75949 | 21327 ft | 422 kts | 164° |
| 2026-04-25 07:04 | -33.93144 | 150.77313 | 22245 ft | 426 kts | 148° |
| 2026-04-25 07:04 | -33.95436 | 150.79581 | 23131 ft | 431 kts | 132° |
| 2026-04-25 07:04 | -33.97179 | 150.82539 | 24038 ft | 436 kts | 118° |
| 2026-04-25 07:04 | -33.98249 | 150.85973 | 24779 ft | 442 kts | 106° |
| 2026-04-25 07:05 | -33.98974 | 150.89600 | 25493 ft | 448 kts | 103° |
| 2026-04-25 07:05 | -33.99611 | 150.93301 | 26175 ft | 454 kts | 103° |
| 2026-04-25 07:05 | -34.00233 | 150.97052 | 26877 ft | 459 kts | 103° |
| 2026-04-25 07:05 | -34.00873 | 151.00847 | 27585 ft | 464 kts | 103° |
| 2026-04-25 07:06 | -34.01532 | 151.04616 | 28266 ft | 469 kts | 104° |
| 2026-04-25 07:06 | -34.02222 | 151.08457 | 28376 ft | 468 kts | 104° |
| 2026-04-25 07:06 | -34.02930 | 151.12303 | 28380 ft | 469 kts | 104° |
| 2026-04-25 07:07 | -34.04365 | 151.20003 | 28377 ft | 470 kts | 104° |
| 2026-04-25 07:07 | -34.05803 | 151.27730 | 28980 ft | 476 kts | 104° |
| 2026-04-25 07:07 | -34.06528 | 151.31640 | 29677 ft | 479 kts | 104° |
| 2026-04-25 07:08 | -34.07257 | 151.35582 | 30333 ft | 482 kts | 104° |
| 2026-04-25 07:08 | -34.07987 | 151.39545 | 30870 ft | 484 kts | 104° |
| 2026-04-25 07:08 | -34.08716 | 151.43510 | 31489 ft | 484 kts | 104° |
| 2026-04-25 07:08 | -34.09441 | 151.47467 | 32185 ft | 482 kts | 105° |
| 2026-04-25 07:09 | -34.10161 | 151.51405 | 32870 ft | 480 kts | 105° |
| 2026-04-25 07:09 | -34.10877 | 151.55327 | 33522 ft | 479 kts | 105° |
| 2026-04-25 07:09 | -34.11592 | 151.59244 | 34140 ft | 478 kts | 105° |
| 2026-04-25 07:09 | -34.12306 | 151.63167 | 34711 ft | 477 kts | 105° |
| 2026-04-25 07:10 | -34.13015 | 151.67070 | 35314 ft | 474 kts | 105° |
| 2026-04-25 07:10 | -34.13719 | 151.70950 | 35904 ft | 472 kts | 105° |
| 2026-04-25 07:10 | -34.14418 | 151.74809 | 36445 ft | 470 kts | 105° |
| 2026-04-25 07:10 | -34.15106 | 151.78614 | 36928 ft | 470 kts | 105° |
| 2026-04-25 07:11 | -34.15801 | 151.82468 | 37449 ft | 469 kts | 104° |
| 2026-04-25 07:11 | -34.16492 | 151.86305 | 37960 ft | 467 kts | 104° |
| 2026-04-25 07:11 | -34.17179 | 151.90132 | 38484 ft | 466 kts | 104° |
| 2026-04-25 07:11 | -34.17864 | 151.93947 | 39004 ft | 464 kts | 104° |
| 2026-04-25 07:12 | -34.18545 | 151.97752 | 39449 ft | 462 kts | 104° |
| 2026-04-25 07:12 | -34.20075 | 152.05307 | 40003 ft | 464 kts | 111° |
| 2026-04-25 07:12 | -34.21134 | 152.08993 | 40292 ft | 464 kts | 112° |
| 2026-04-25 07:13 | -34.22223 | 152.12672 | 40611 ft | 464 kts | 112° |
| 2026-04-25 07:13 | -34.22946 | 152.15098 | 40815 ft | 465 kts | 112° |
| 2026-04-25 07:13 | -34.24041 | 152.18782 | 41115 ft | 465 kts | 112° |
| 2026-04-25 07:13 | -34.25133 | 152.22481 | 41315 ft | 469 kts | 112° |
| 2026-04-25 07:14 | -34.27318 | 152.29960 | 41380 ft | 472 kts | 112° |
| 2026-04-25 07:14 | -34.29818 | 152.38612 | 41376 ft | 465 kts | 111° |
| 2026-04-25 07:15 | -34.31596 | 152.44791 | 41385 ft | 463 kts | 111° |
| 2026-04-25 07:15 | -34.33713 | 152.52154 | 41387 ft | 463 kts | 111° |
| 2026-04-25 07:16 | -34.35811 | 152.59464 | 41394 ft | 463 kts | 111° |
| 2026-04-25 07:16 | -34.37921 | 152.66836 | 41381 ft | 463 kts | 111° |
| 2026-04-25 07:17 | -34.40028 | 152.74220 | 41392 ft | 464 kts | 111° |
| 2026-04-25 07:17 | -34.42130 | 152.81602 | 41393 ft | 464 kts | 111° |
| 2026-04-25 07:18 | -34.44229 | 152.88996 | 41389 ft | 464 kts | 111° |
| 2026-04-25 07:18 | -34.46327 | 152.96406 | 41392 ft | 464 kts | 111° |
| 2026-04-25 07:19 | -34.48421 | 153.03822 | 41390 ft | 465 kts | 111° |
| 2026-04-25 07:19 | -34.50497 | 153.11191 | 41393 ft | 465 kts | 111° |
| 2026-04-25 07:20 | -34.52579 | 153.18601 | 41398 ft | 464 kts | 111° |
| 2026-04-25 07:20 | -34.54655 | 153.26013 | 41397 ft | 464 kts | 111° |
| 2026-04-25 07:21 | -34.56725 | 153.33422 | 41398 ft | 463 kts | 111° |
| 2026-04-25 07:21 | -34.58789 | 153.40825 | 41399 ft | 463 kts | 111° |
| 2026-04-25 07:22 | -34.60844 | 153.48217 | 41403 ft | 462 kts | 111° |
| 2026-04-25 07:22 | -34.62895 | 153.55616 | 41398 ft | 462 kts | 111° |
| 2026-04-25 07:23 | -34.64940 | 153.63015 | 41402 ft | 462 kts | 111° |
| 2026-04-25 07:23 | -34.66978 | 153.70404 | 41402 ft | 462 kts | 111° |
| 2026-04-25 07:24 | -34.69013 | 153.77805 | 41413 ft | 462 kts | 111° |
| 2026-04-25 07:24 | -34.71044 | 153.85211 | 41403 ft | 462 kts | 110° |
| 2026-04-25 07:25 | -34.73068 | 153.92611 | 41407 ft | 461 kts | 110° |
| 2026-04-25 07:25 | -34.75089 | 154.00020 | 41410 ft | 461 kts | 110° |
| 2026-04-25 07:26 | -34.77091 | 154.07378 | 41418 ft | 461 kts | 110° |
| 2026-04-25 07:26 | -34.79101 | 154.14786 | 41412 ft | 461 kts | 110° |
| 2026-04-25 07:27 | -34.81104 | 154.22190 | 41413 ft | 461 kts | 110° |
| 2026-04-25 07:27 | -34.83104 | 154.29601 | 41412 ft | 461 kts | 110° |
| 2026-04-25 07:28 | -34.85098 | 154.37010 | 41424 ft | 460 kts | 110° |
| 2026-04-25 07:28 | -34.87087 | 154.44425 | 41416 ft | 460 kts | 110° |
| 2026-04-25 07:29 | -34.89071 | 154.51839 | 41414 ft | 460 kts | 110° |
| 2026-04-25 07:29 | -34.91049 | 154.59250 | 41416 ft | 460 kts | 110° |
| 2026-04-25 07:30 | -34.93012 | 154.66623 | 41417 ft | 460 kts | 110° |
| 2026-04-25 07:30 | -34.94982 | 154.74047 | 41421 ft | 459 kts | 110° |
| 2026-04-25 07:31 | -34.96944 | 154.81460 | 41415 ft | 459 kts | 110° |
| 2026-04-25 07:31 | -34.98900 | 154.88873 | 41417 ft | 459 kts | 110° |
| 2026-04-25 07:32 | -35.00853 | 154.96288 | 41425 ft | 459 kts | 110° |
| 2026-04-25 07:32 | -35.02802 | 155.03714 | 41425 ft | 459 kts | 110° |
| 2026-04-25 07:33 | -35.04750 | 155.11151 | 41423 ft | 459 kts | 110° |
| 2026-04-25 07:33 | -35.06690 | 155.18579 | 41417 ft | 459 kts | 109° |
| 2026-04-25 07:34 | -35.08626 | 155.26013 | 41433 ft | 459 kts | 109° |
| 2026-04-25 07:34 | -35.10543 | 155.33398 | 41424 ft | 460 kts | 109° |
| 2026-04-25 07:35 | -35.12473 | 155.40849 | 41427 ft | 460 kts | 109° |
| 2026-04-25 07:35 | -35.14398 | 155.48307 | 41427 ft | 460 kts | 109° |
| 2026-04-25 07:36 | -35.16320 | 155.55770 | 41432 ft | 460 kts | 109° |
| 2026-04-25 07:36 | -35.18236 | 155.63235 | 41435 ft | 460 kts | 109° |
| 2026-04-25 07:37 | -35.20151 | 155.70716 | 41427 ft | 460 kts | 109° |
| 2026-04-25 07:37 | -35.22058 | 155.78188 | 41429 ft | 460 kts | 109° |
| 2026-04-25 07:38 | -35.23961 | 155.85666 | 41431 ft | 460 kts | 109° |
| 2026-04-25 07:38 | -35.25858 | 155.93141 | 41435 ft | 460 kts | 109° |
| 2026-04-25 07:39 | -35.27751 | 156.00619 | 41437 ft | 460 kts | 109° |
| 2026-04-25 07:39 | -35.29628 | 156.08060 | 41433 ft | 460 kts | 109° |
| 2026-04-25 07:40 | -35.31508 | 156.15534 | 41434 ft | 459 kts | 109° |
| 2026-04-25 07:40 | -35.33386 | 156.23018 | 41434 ft | 459 kts | 109° |
| 2026-04-25 07:41 | -35.35257 | 156.30499 | 41435 ft | 459 kts | 109° |
| 2026-04-25 07:41 | -35.37123 | 156.37983 | 41436 ft | 459 kts | 109° |
| 2026-04-25 07:42 | -35.38986 | 156.45475 | 41437 ft | 459 kts | 108° |
| 2026-04-25 07:42 | -35.40843 | 156.52966 | 41440 ft | 459 kts | 108° |
| 2026-04-25 07:43 | -35.42697 | 156.60463 | 41446 ft | 459 kts | 108° |
| 2026-04-25 07:43 | -35.44545 | 156.67961 | 41439 ft | 460 kts | 108° |
| 2026-04-25 07:44 | -35.46391 | 156.75474 | 41442 ft | 460 kts | 108° |
| 2026-04-25 07:44 | -35.48231 | 156.82985 | 41442 ft | 460 kts | 108° |
| 2026-04-25 07:45 | -35.50067 | 156.90500 | 41445 ft | 460 kts | 108° |
| 2026-04-25 07:45 | -35.51888 | 156.97977 | 41442 ft | 460 kts | 108° |
| 2026-04-25 07:46 | -35.53714 | 157.05499 | 41442 ft | 460 kts | 108° |
| 2026-04-25 07:46 | -35.55539 | 157.13038 | 41442 ft | 460 kts | 108° |
| 2026-04-25 07:47 | -35.57357 | 157.20570 | 41442 ft | 460 kts | 108° |
| 2026-04-25 07:47 | -35.59172 | 157.28113 | 41444 ft | 460 kts | 108° |
| 2026-04-25 07:48 | -35.60982 | 157.35658 | 41444 ft | 460 kts | 108° |
| 2026-04-25 07:48 | -35.62776 | 157.43164 | 41448 ft | 460 kts | 108° |
| 2026-04-25 07:49 | -35.64579 | 157.50724 | 41448 ft | 460 kts | 108° |
| 2026-04-25 07:49 | -35.66374 | 157.58277 | 41451 ft | 460 kts | 107° |
| 2026-04-25 07:50 | -35.68165 | 157.65836 | 41444 ft | 460 kts | 107° |
| 2026-04-25 07:50 | -35.69953 | 157.73403 | 41442 ft | 460 kts | 107° |
| 2026-04-25 07:51 | -35.71734 | 157.80970 | 41445 ft | 460 kts | 107° |
| 2026-04-25 07:51 | -35.73510 | 157.88534 | 41446 ft | 460 kts | 107° |
| 2026-04-25 07:52 | -35.75284 | 157.96113 | 41444 ft | 461 kts | 107° |
| 2026-04-25 07:52 | -35.77042 | 158.03647 | 41445 ft | 461 kts | 107° |
| 2026-04-25 07:53 | -35.78686 | 158.11283 | 41448 ft | 461 kts | 104° |
| 2026-04-25 07:53 | -35.80021 | 158.19013 | 41449 ft | 461 kts | 103° |
| 2026-04-25 07:54 | -35.81317 | 158.26763 | 41448 ft | 462 kts | 103° |
| 2026-04-25 07:54 | -35.82626 | 158.34520 | 41448 ft | 462 kts | 103° |
| 2026-04-25 07:55 | -35.83943 | 158.42274 | 41445 ft | 462 kts | 103° |
| 2026-04-25 07:55 | -35.85259 | 158.50025 | 41448 ft | 462 kts | 103° |
| 2026-04-25 07:56 | -35.86563 | 158.57739 | 41451 ft | 462 kts | 103° |
| 2026-04-25 07:56 | -35.87870 | 158.65504 | 41450 ft | 462 kts | 103° |
| 2026-04-25 07:57 | -35.89171 | 158.73266 | 41449 ft | 462 kts | 103° |
| 2026-04-25 07:57 | -35.90466 | 158.81032 | 41450 ft | 462 kts | 103° |
| 2026-04-25 07:58 | -35.91757 | 158.88800 | 41439 ft | 462 kts | 102° |
| 2026-04-25 07:58 | -35.93043 | 158.96573 | 41449 ft | 462 kts | 102° |
| 2026-04-25 07:59 | -35.94324 | 159.04349 | 41451 ft | 462 kts | 102° |
| 2026-04-25 07:59 | -35.95603 | 159.12142 | 41450 ft | 463 kts | 102° |
| 2026-04-25 08:00 | -35.96866 | 159.19875 | 41458 ft | 463 kts | 102° |
| 2026-04-25 08:00 | -35.98134 | 159.27667 | 41458 ft | 463 kts | 102° |
| 2026-04-25 08:01 | -35.99397 | 159.35466 | 41443 ft | 463 kts | 102° |
| 2026-04-25 08:01 | -36.00655 | 159.43269 | 41453 ft | 463 kts | 102° |
| 2026-04-25 08:02 | -36.01706 | 159.49811 | 41449 ft | 464 kts | 102° |
| 2026-04-25 08:02 | -36.02948 | 159.57574 | 41460 ft | 464 kts | 102° |
| 2026-04-25 08:03 | -36.04193 | 159.65390 | 41455 ft | 464 kts | 102° |
| 2026-04-25 08:03 | -36.05436 | 159.73227 | 41447 ft | 464 kts | 102° |
| 2026-04-25 08:04 | -36.06673 | 159.81059 | 41452 ft | 464 kts | 102° |
| 2026-04-25 08:04 | -36.07905 | 159.88901 | 41449 ft | 465 kts | 101° |
| 2026-04-25 08:05 | -36.09133 | 159.96747 | 41449 ft | 465 kts | 101° |
| 2026-04-25 08:05 | -36.10356 | 160.04596 | 41452 ft | 465 kts | 101° |
| 2026-04-25 08:06 | -36.11566 | 160.12402 | 41456 ft | 465 kts | 101° |
| 2026-04-25 08:06 | -36.12781 | 160.20272 | 41448 ft | 465 kts | 101° |
| 2026-04-25 08:07 | -36.13991 | 160.28138 | 41453 ft | 465 kts | 101° |
| 2026-04-25 08:07 | -36.15195 | 160.36009 | 41449 ft | 465 kts | 101° |
| 2026-04-25 08:08 | -36.16393 | 160.43882 | 41450 ft | 465 kts | 101° |
| 2026-04-25 08:08 | -36.17588 | 160.51760 | 41458 ft | 465 kts | 101° |
| 2026-04-25 08:09 | -36.18769 | 160.59587 | 41448 ft | 466 kts | 101° |
| 2026-04-25 08:09 | -36.19953 | 160.67471 | 41447 ft | 466 kts | 101° |
| 2026-04-25 08:10 | -36.21135 | 160.75380 | 41441 ft | 466 kts | 101° |
| 2026-04-25 08:10 | -36.22310 | 160.83276 | 41440 ft | 466 kts | 101° |
| 2026-04-25 08:11 | -36.23479 | 160.91174 | 41437 ft | 466 kts | 101° |
| 2026-04-25 08:11 | -36.24644 | 160.99076 | 41447 ft | 466 kts | 101° |
| 2026-04-25 08:12 | -36.25797 | 161.06934 | 41444 ft | 466 kts | 100° |
| 2026-04-25 08:12 | -36.26953 | 161.14853 | 41435 ft | 467 kts | 100° |
| 2026-04-25 08:13 | -36.28102 | 161.22764 | 41441 ft | 467 kts | 100° |
| 2026-04-25 08:14 | -36.29820 | 161.34662 | 41445 ft | 467 kts | 100° |
| 2026-04-25 08:14 | -36.30958 | 161.42590 | 41447 ft | 467 kts | 100° |
| 2026-04-25 08:15 | -36.32090 | 161.50517 | 41437 ft | 467 kts | 100° |
| 2026-04-25 08:15 | -36.33210 | 161.58396 | 41448 ft | 467 kts | 100° |
| 2026-04-25 08:16 | -36.34332 | 161.66329 | 41437 ft | 467 kts | 100° |
| 2026-04-25 08:16 | -36.35449 | 161.74271 | 41440 ft | 467 kts | 100° |
| 2026-04-25 08:17 | -36.36560 | 161.82208 | 41448 ft | 467 kts | 100° |
| 2026-04-25 08:17 | -36.37666 | 161.90145 | 41442 ft | 467 kts | 100° |
| 2026-04-25 08:18 | -36.38766 | 161.98083 | 41441 ft | 467 kts | 100° |
| 2026-04-25 08:18 | -36.39862 | 162.06026 | 41444 ft | 467 kts | 99° |
| 2026-04-25 08:19 | -36.40951 | 162.13960 | 41439 ft | 467 kts | 99° |
| 2026-04-25 08:19 | -36.42028 | 162.21851 | 41437 ft | 467 kts | 99° |
| 2026-04-25 08:20 | -36.43108 | 162.29801 | 41433 ft | 467 kts | 99° |
| 2026-04-25 08:20 | -36.44183 | 162.37758 | 41433 ft | 467 kts | 99° |
| 2026-04-25 08:21 | -36.45252 | 162.45713 | 41430 ft | 467 kts | 99° |
| 2026-04-25 08:21 | -36.46316 | 162.53670 | 41429 ft | 467 kts | 99° |
| 2026-04-25 08:22 | -36.47375 | 162.61635 | 41435 ft | 467 kts | 99° |
| 2026-04-25 08:22 | -36.48429 | 162.69598 | 41437 ft | 467 kts | 99° |
| 2026-04-25 08:23 | -36.49477 | 162.77561 | 41436 ft | 467 kts | 99° |
| 2026-04-25 08:23 | -36.50519 | 162.85519 | 41433 ft | 466 kts | 99° |
| 2026-04-25 08:24 | -36.51556 | 162.93482 | 41426 ft | 467 kts | 99° |
| 2026-04-25 08:24 | -36.52580 | 163.01387 | 41429 ft | 466 kts | 99° |
| 2026-04-25 08:25 | -36.53604 | 163.09357 | 41429 ft | 467 kts | 99° |
| 2026-04-25 08:25 | -36.54622 | 163.17324 | 41424 ft | 466 kts | 99° |
| 2026-04-25 08:26 | -36.55635 | 163.25302 | 41425 ft | 467 kts | 99° |
| 2026-04-25 08:26 | -36.56643 | 163.33281 | 41426 ft | 467 kts | 99° |
| 2026-04-25 08:27 | -36.57647 | 163.41266 | 41423 ft | 467 kts | 99° |
| 2026-04-25 08:27 | -36.58645 | 163.49257 | 41428 ft | 467 kts | 99° |
| 2026-04-25 08:28 | -36.59639 | 163.57250 | 41427 ft | 467 kts | 99° |
| 2026-04-25 08:28 | -36.60619 | 163.65180 | 41432 ft | 467 kts | 98° |
| 2026-04-25 08:29 | -36.61601 | 163.73176 | 41430 ft | 467 kts | 98° |
| 2026-04-25 08:29 | -36.62579 | 163.81178 | 41422 ft | 468 kts | 98° |
| 2026-04-25 08:30 | -36.63553 | 163.89196 | 41425 ft | 468 kts | 98° |
| 2026-04-25 08:30 | -36.64522 | 163.97216 | 41424 ft | 468 kts | 98° |
| 2026-04-25 08:31 | -36.65487 | 164.05255 | 41423 ft | 468 kts | 98° |
| 2026-04-25 08:31 | -36.66445 | 164.13285 | 41421 ft | 469 kts | 98° |
| 2026-04-25 08:32 | -36.67395 | 164.21282 | 41419 ft | 469 kts | 98° |
| 2026-04-25 08:32 | -36.68344 | 164.29327 | 41412 ft | 469 kts | 98° |
| 2026-04-25 08:33 | -36.69288 | 164.37382 | 41411 ft | 469 kts | 98° |
| 2026-04-25 08:33 | -36.70227 | 164.45436 | 41415 ft | 470 kts | 98° |
| 2026-04-25 08:34 | -36.71161 | 164.53498 | 41407 ft | 471 kts | 98° |
| 2026-04-25 08:34 | -36.72091 | 164.61574 | 41419 ft | 471 kts | 98° |
| 2026-04-25 08:35 | -36.73017 | 164.69660 | 41419 ft | 471 kts | 98° |
| 2026-04-25 08:35 | -36.73938 | 164.77759 | 41416 ft | 471 kts | 98° |
| 2026-04-25 08:36 | -36.74854 | 164.85856 | 41415 ft | 472 kts | 98° |
| 2026-04-25 08:36 | -36.75759 | 164.93911 | 41409 ft | 472 kts | 98° |
| 2026-04-25 08:37 | -36.76664 | 165.02020 | 41403 ft | 472 kts | 98° |
| 2026-04-25 08:37 | -36.77563 | 165.10124 | 41407 ft | 472 kts | 98° |
| 2026-04-25 08:38 | -36.78458 | 165.18239 | 41414 ft | 473 kts | 98° |
| 2026-04-25 08:38 | -36.79349 | 165.26374 | 41414 ft | 473 kts | 98° |
| 2026-04-25 08:39 | -36.80234 | 165.34518 | 41403 ft | 474 kts | 97° |
| 2026-04-25 08:39 | -36.81118 | 165.42687 | 41408 ft | 475 kts | 97° |
| 2026-04-25 08:40 | -36.81996 | 165.50856 | 41397 ft | 475 kts | 97° |
| 2026-04-25 08:40 | -36.82863 | 165.58975 | 41403 ft | 475 kts | 97° |
| 2026-04-25 08:41 | -36.83730 | 165.67155 | 41403 ft | 475 kts | 97° |
| 2026-04-25 08:41 | -36.84590 | 165.75330 | 41405 ft | 475 kts | 97° |
| 2026-04-25 08:42 | -36.85445 | 165.83505 | 41394 ft | 475 kts | 97° |
| 2026-04-25 08:42 | -36.86295 | 165.91688 | 41396 ft | 476 kts | 97° |
| 2026-04-25 08:43 | -36.87141 | 165.99886 | 41401 ft | 476 kts | 97° |
| 2026-04-25 08:43 | -36.87982 | 166.08091 | 41401 ft | 477 kts | 97° |
| 2026-04-25 08:44 | -36.88818 | 166.16313 | 41403 ft | 477 kts | 97° |
| 2026-04-25 08:44 | -36.89650 | 166.24543 | 41397 ft | 478 kts | 97° |
| 2026-04-25 08:45 | -36.90477 | 166.32785 | 41398 ft | 478 kts | 97° |
| 2026-04-25 08:45 | -36.91299 | 166.41041 | 41395 ft | 478 kts | 97° |
| 2026-04-25 08:46 | -36.92115 | 166.49293 | 41390 ft | 479 kts | 97° |
| 2026-04-25 08:46 | -36.92921 | 166.57499 | 41394 ft | 479 kts | 97° |
| 2026-04-25 08:47 | -36.93727 | 166.65769 | 41389 ft | 479 kts | 97° |
| 2026-04-25 08:47 | -36.94528 | 166.74045 | 41391 ft | 479 kts | 97° |
| 2026-04-25 08:48 | -36.95322 | 166.82318 | 41390 ft | 480 kts | 97° |
| 2026-04-25 08:48 | -36.96113 | 166.90609 | 41388 ft | 480 kts | 97° |
| 2026-04-25 08:49 | -36.96897 | 166.98897 | 41390 ft | 480 kts | 97° |
| 2026-04-25 08:49 | -36.97677 | 167.07206 | 41388 ft | 481 kts | 97° |
| 2026-04-25 08:50 | -36.98452 | 167.15521 | 41390 ft | 481 kts | 97° |
| 2026-04-25 08:50 | -36.99220 | 167.23830 | 41389 ft | 481 kts | 97° |
| 2026-04-25 08:51 | -36.99979 | 167.32104 | 41387 ft | 482 kts | 97° |
| 2026-04-25 08:51 | -37.00738 | 167.40441 | 41389 ft | 483 kts | 97° |
| 2026-04-25 08:52 | -37.01492 | 167.48785 | 41385 ft | 483 kts | 96° |
| 2026-04-25 08:52 | -37.02241 | 167.57145 | 41386 ft | 483 kts | 96° |
| 2026-04-25 08:53 | -37.02984 | 167.65503 | 41381 ft | 484 kts | 96° |
| 2026-04-25 08:53 | -37.03598 | 167.72461 | 41383 ft | 484 kts | 96° |
| 2026-04-25 08:54 | -37.04332 | 167.80838 | 41389 ft | 484 kts | 96° |
| 2026-04-25 08:54 | -37.05059 | 167.89214 | 41378 ft | 484 kts | 96° |
| 2026-04-25 08:55 | -37.05782 | 167.97606 | 41374 ft | 484 kts | 96° |
| 2026-04-25 08:55 | -37.06499 | 168.05997 | 41378 ft | 485 kts | 96° |
| 2026-04-25 08:56 | -37.07211 | 168.14409 | 41371 ft | 486 kts | 96° |
| 2026-04-25 08:56 | -37.07918 | 168.22825 | 41377 ft | 487 kts | 96° |
| 2026-04-25 08:57 | -37.08616 | 168.31211 | 41376 ft | 487 kts | 96° |
| 2026-04-25 08:57 | -37.09313 | 168.39660 | 41369 ft | 488 kts | 96° |
| 2026-04-25 08:58 | -37.10004 | 168.48104 | 41375 ft | 488 kts | 96° |
| 2026-04-25 08:58 | -37.10691 | 168.56579 | 41372 ft | 488 kts | 96° |
| 2026-04-25 08:59 | -37.11371 | 168.65050 | 41365 ft | 489 kts | 96° |
| 2026-04-25 08:59 | -37.12046 | 168.73525 | 41371 ft | 489 kts | 96° |
| 2026-04-25 09:00 | -37.12715 | 168.82008 | 41370 ft | 489 kts | 96° |
| 2026-04-25 09:00 | -37.13374 | 168.90438 | 41367 ft | 490 kts | 96° |
| 2026-04-25 09:01 | -37.14033 | 168.98937 | 41370 ft | 490 kts | 96° |
| 2026-04-25 09:01 | -37.14686 | 169.07449 | 41364 ft | 490 kts | 96° |
| 2026-04-25 09:02 | -37.15331 | 169.15948 | 41359 ft | 490 kts | 96° |
| 2026-04-25 09:02 | -37.15971 | 169.24449 | 41363 ft | 489 kts | 96° |
| 2026-04-25 09:03 | -37.16602 | 169.32905 | 41361 ft | 489 kts | 96° |
| 2026-04-25 09:03 | -37.17228 | 169.41399 | 41356 ft | 490 kts | 96° |
| 2026-04-25 09:04 | -37.17850 | 169.49910 | 41360 ft | 490 kts | 96° |
| 2026-04-25 09:04 | -37.18467 | 169.58437 | 41361 ft | 491 kts | 95° |
| 2026-04-25 09:05 | -37.19079 | 169.66974 | 41350 ft | 492 kts | 95° |
| 2026-04-25 09:05 | -37.19685 | 169.75522 | 41353 ft | 492 kts | 96° |
| 2026-04-25 09:06 | -37.20286 | 169.84080 | 41358 ft | 492 kts | 95° |
| 2026-04-25 09:06 | -37.20881 | 169.92648 | 41352 ft | 493 kts | 95° |
| 2026-04-25 09:07 | -37.21471 | 170.01235 | 41353 ft | 494 kts | 95° |
| 2026-04-25 09:07 | -37.22050 | 170.09759 | 41353 ft | 493 kts | 95° |
| 2026-04-25 09:08 | -37.22627 | 170.18344 | 41350 ft | 494 kts | 95° |
| 2026-04-25 09:08 | -37.23199 | 170.26932 | 41345 ft | 494 kts | 95° |
| 2026-04-25 09:09 | -37.23765 | 170.35537 | 41352 ft | 494 kts | 95° |
| 2026-04-25 09:09 | -37.24325 | 170.44142 | 41348 ft | 495 kts | 95° |
| 2026-04-25 09:10 | -37.24878 | 170.52748 | 41335 ft | 495 kts | 95° |
| 2026-04-25 09:10 | -37.25427 | 170.61353 | 41342 ft | 494 kts | 95° |
| 2026-04-25 09:11 | -37.25719 | 170.74223 | 41343 ft | 494 kts | 88° |
| 2026-04-25 09:11 | -37.25350 | 170.82834 | 41336 ft | 494 kts | 87° |
| 2026-04-25 09:12 | -37.24997 | 170.91456 | 41338 ft | 494 kts | 88° |
| 2026-04-25 09:12 | -37.24715 | 171.00086 | 41337 ft | 495 kts | 88° |
| 2026-04-25 09:13 | -37.24459 | 171.08732 | 41333 ft | 495 kts | 88° |
| 2026-04-25 09:13 | -37.24200 | 171.17385 | 41333 ft | 496 kts | 88° |
| 2026-04-25 09:14 | -37.23930 | 171.26035 | 41335 ft | 496 kts | 88° |
| 2026-04-25 09:14 | -37.23654 | 171.34618 | 41337 ft | 496 kts | 88° |
| 2026-04-25 09:15 | -37.23369 | 171.43261 | 41332 ft | 496 kts | 88° |
| 2026-04-25 09:15 | -37.23078 | 171.51911 | 41329 ft | 496 kts | 88° |
| 2026-04-25 09:16 | -37.22780 | 171.60553 | 41330 ft | 496 kts | 88° |
| 2026-04-25 09:16 | -37.22477 | 171.69187 | 41326 ft | 496 kts | 87° |
| 2026-04-25 09:17 | -37.22010 | 171.82165 | 41322 ft | 496 kts | 87° |
| 2026-04-25 09:18 | -37.21691 | 171.90804 | 41317 ft | 496 kts | 87° |
| 2026-04-25 09:18 | -37.21367 | 171.99383 | 41324 ft | 496 kts | 87° |
| 2026-04-25 09:19 | -37.21036 | 172.08020 | 41316 ft | 496 kts | 87° |
| 2026-04-25 09:19 | -37.20697 | 172.16679 | 41314 ft | 497 kts | 87° |
| 2026-04-25 09:20 | -37.20352 | 172.25348 | 41318 ft | 498 kts | 87° |
| 2026-04-25 09:20 | -37.19999 | 172.34038 | 41319 ft | 499 kts | 87° |
| 2026-04-25 09:21 | -37.19639 | 172.42741 | 41321 ft | 500 kts | 86° |
| 2026-04-25 09:21 | -37.19272 | 172.51470 | 41310 ft | 501 kts | 86° |
| 2026-04-25 09:22 | -37.18898 | 172.60200 | 41315 ft | 501 kts | 86° |
| 2026-04-25 09:22 | -37.18518 | 172.68937 | 41315 ft | 502 kts | 86° |
| 2026-04-25 09:23 | -37.18131 | 172.77675 | 41315 ft | 502 kts | 86° |
| 2026-04-25 09:23 | -37.17740 | 172.86353 | 41309 ft | 501 kts | 86° |
| 2026-04-25 09:24 | -37.17341 | 172.95086 | 41309 ft | 501 kts | 86° |
| 2026-04-25 09:24 | -37.16936 | 173.03805 | 41304 ft | 501 kts | 86° |
| 2026-04-25 09:25 | -37.16524 | 173.12526 | 41302 ft | 500 kts | 86° |
| 2026-04-25 09:25 | -37.16106 | 173.21241 | 41302 ft | 501 kts | 86° |
| 2026-04-25 09:26 | -37.15684 | 173.29907 | 41308 ft | 501 kts | 86° |
| 2026-04-25 09:26 | -37.15254 | 173.38627 | 41306 ft | 501 kts | 86° |
| 2026-04-25 09:27 | -37.14719 | 173.47347 | 41306 ft | 501 kts | 81° |
| 2026-04-25 09:27 | -37.13358 | 173.55913 | 41316 ft | 501 kts | 76° |
| 2026-04-25 09:28 | -37.11776 | 173.64416 | 41302 ft | 502 kts | 76° |
| 2026-04-25 09:28 | -37.10297 | 173.72924 | 41297 ft | 502 kts | 77° |
| 2026-04-25 09:29 | -37.08883 | 173.81448 | 41116 ft | 493 kts | 77° |
| 2026-04-25 09:29 | -37.08195 | 173.85615 | 40691 ft | 486 kts | 78° |
| 2026-04-25 09:29 | -37.07505 | 173.89766 | 39934 ft | 487 kts | 77° |
| 2026-04-25 09:29 | -37.06815 | 173.93898 | 38823 ft | 481 kts | 77° |
| 2026-04-25 09:30 | -37.06131 | 173.97971 | 37111 ft | 475 kts | 79° |
| 2026-04-25 09:30 | -37.05452 | 174.01992 | 35427 ft | 468 kts | 80° |
| 2026-04-25 09:30 | -37.04786 | 174.05930 | 33652 ft | 457 kts | 81° |
| 2026-04-25 09:30 | -37.04134 | 174.09794 | 31577 ft | 450 kts | 81° |
| 2026-04-25 09:31 | -37.03497 | 174.13557 | 30005 ft | 434 kts | 81° |
| 2026-04-25 09:31 | -37.03086 | 174.15973 | 28995 ft | 422 kts | 81° |
| 2026-04-25 09:31 | -37.02289 | 174.20644 | 27138 ft | 399 kts | 81° |
| 2026-04-25 09:31 | -37.01718 | 174.23987 | 25847 ft | 386 kts | 81° |
| 2026-04-25 09:32 | -37.01165 | 174.27227 | 24538 ft | 377 kts | 81° |
| 2026-04-25 09:32 | -37.00630 | 174.30367 | 23102 ft | 371 kts | 80° |
| 2026-04-25 09:32 | -37.00096 | 174.33498 | 21596 ft | 365 kts | 80° |
| 2026-04-25 09:32 | -36.99569 | 174.36584 | 20191 ft | 360 kts | 80° |
| 2026-04-25 09:33 | -36.99047 | 174.39627 | 18872 ft | 356 kts | 79° |
| 2026-04-25 09:33 | -36.98533 | 174.42613 | 17489 ft | 351 kts | 79° |
| 2026-04-25 09:33 | -36.98006 | 174.45563 | 16185 ft | 344 kts | 77° |
| 2026-04-25 09:33 | -36.97307 | 174.48405 | 14956 ft | 339 kts | 73° |
| 2026-04-25 09:34 | -36.96522 | 174.51150 | 14041 ft | 327 kts | 72° |
| 2026-04-25 09:34 | -36.95765 | 174.53744 | 13375 ft | 308 kts | 72° |
| 2026-04-25 09:34 | -36.95058 | 174.56208 | 12714 ft | 294 kts | 72° |
| 2026-04-25 09:34 | -36.94400 | 174.58543 | 12043 ft | 284 kts | 72° |
| 2026-04-25 09:35 | -36.93749 | 174.60881 | 11279 ft | 279 kts | 73° |
| 2026-04-25 09:35 | -36.93119 | 174.63158 | 10479 ft | 276 kts | 73° |
| 2026-04-25 09:35 | -36.92503 | 174.65395 | 9631 ft | 274 kts | 73° |
| 2026-04-25 09:35 | -36.91886 | 174.67638 | 8820 ft | 271 kts | 72° |
| 2026-04-25 09:36 | -36.91276 | 174.69847 | 8058 ft | 266 kts | 72° |
| 2026-04-25 09:36 | -36.90695 | 174.71941 | 7729 ft | 243 kts | 72° |
| 2026-04-25 09:36 | -36.90162 | 174.73871 | 7449 ft | 228 kts | 73° |
| 2026-04-25 09:36 | -36.89776 | 174.75848 | 7223 ft | 248 kts | 81° |
| 2026-04-25 09:37 | -36.89472 | 174.78063 | 6951 ft | 269 kts | 82° |
| 2026-04-25 09:37 | -36.89159 | 174.80431 | 6629 ft | 277 kts | 81° |
| 2026-04-25 09:37 | -36.88850 | 174.82704 | 6266 ft | 254 kts | 81° |
| 2026-04-25 09:37 | -36.88562 | 174.84771 | 5969 ft | 230 kts | 81° |
| 2026-04-25 09:38 | -36.88291 | 174.86702 | 5895 ft | 234 kts | 81° |
| 2026-04-25 09:38 | -36.87997 | 174.88787 | 5869 ft | 246 kts | 81° |
| 2026-04-25 09:38 | -36.87703 | 174.90833 | 5796 ft | 231 kts | 81° |
| 2026-04-25 09:38 | -36.87435 | 174.92693 | 5810 ft | 210 kts | 81° |
| 2026-04-25 09:39 | -36.87183 | 174.94427 | 5788 ft | 193 kts | 82° |
| 2026-04-25 09:39 | -36.86950 | 174.96045 | 5783 ft | 188 kts | 82° |
| 2026-04-25 09:39 | -36.86721 | 174.97633 | 5688 ft | 190 kts | 82° |
| 2026-04-25 09:40 | -36.87245 | 175.00647 | 5014 ft | 185 kts | 142° |
| 2026-04-25 09:40 | -36.88386 | 175.01348 | 4643 ft | 183 kts | 158° |
| 2026-04-25 09:40 | -36.89594 | 175.01879 | 4239 ft | 183 kts | 160° |
| 2026-04-25 09:40 | -36.90776 | 175.02387 | 3831 ft | 179 kts | 161° |
| 2026-04-25 09:41 | -36.91940 | 175.02868 | 3412 ft | 172 kts | 167° |
| 2026-04-25 09:41 | -36.93088 | 175.02803 | 3073 ft | 162 kts | 196° |
| 2026-04-25 09:41 | -36.94156 | 175.02259 | 3019 ft | 167 kts | 197° |
| 2026-04-25 09:41 | -36.95251 | 175.01839 | 2990 ft | 164 kts | 210° |
| 2026-04-25 09:42 | -36.95897 | 175.00744 | 2990 ft | 159 kts | 259° |
| 2026-04-25 09:42 | -36.95926 | 174.99361 | 3017 ft | 161 kts | 264° |
| 2026-04-25 09:42 | -36.96154 | 174.97981 | 2906 ft | 164 kts | 256° |
| 2026-04-25 09:42 | -36.96401 | 174.96607 | 2671 ft | 159 kts | 257° |
| 2026-04-25 09:43 | -36.96662 | 174.95284 | 2462 ft | 155 kts | 253° |
| 2026-04-25 09:43 | -36.96981 | 174.94000 | 2289 ft | 155 kts | 251° |
| 2026-04-25 09:43 | -36.97325 | 174.92720 | 2069 ft | 155 kts | 251° |
| 2026-04-25 09:43 | -36.97673 | 174.91446 | 1847 ft | 154 kts | 250° |
| 2026-04-25 09:44 | -36.98022 | 174.90183 | 1642 ft | 153 kts | 250° |
| 2026-04-25 09:44 | -36.98369 | 174.88924 | 1430 ft | 153 kts | 250° |
| 2026-04-25 09:44 | -36.98595 | 174.88095 | 1290 ft | 152 kts | 251° |
| 2026-04-25 09:44 | -36.99047 | 174.86447 | 1010 ft | 145 kts | 251° |
| 2026-04-25 09:45 | -36.99360 | 174.85313 | 815 ft | 131 kts | 250° |
| 2026-04-25 09:45 | -36.99654 | 174.84252 | 660 ft | 129 kts | 250° |
| 2026-04-25 09:45 | -36.99954 | 174.83168 | 487 ft | 135 kts | 251° |
| 2026-04-25 09:45 | -37.00161 | 174.82408 | 373 ft | 138 kts | 251° |
| 2026-04-25 09:46 | -37.00479 | 174.81255 | 196 ft | 142 kts | 251° |
| 2026-04-25 09:46 | -37.00791 | 174.80122 | 50 ft | 136 kts | 250° |
| 2026-04-25 09:46 | -37.01068 | 174.79118 | 30 ft | 101 kts | 251° |
| 2026-04-25 09:46 | -37.01227 | 174.78547 | 30 ft | 39 kts | 254° |
| 2026-04-25 09:47 | -37.01240 | 174.78252 | 30 ft | 26 kts | 279° |
| 2026-04-25 09:47 | -37.01185 | 174.78111 | 30 ft | 15 kts | 359° |
| 2026-04-25 09:47 | -37.01125 | 174.78214 | 30 ft | 16 kts | 68° |
| 2026-04-25 09:47 | -37.01081 | 174.78355 | 29 ft | 18 kts | 70° |
| 2026-04-25 09:48 | -37.01037 | 174.78515 | 30 ft | 20 kts | 71° |
| 2026-04-25 09:48 | -37.00991 | 174.78692 | 30 ft | 22 kts | 72° |
| 2026-04-25 09:48 | -37.00950 | 174.78845 | 30 ft | 17 kts | 71° |
| 2026-04-25 09:48 | -37.00910 | 174.78992 | 30 ft | 19 kts | 71° |
| 2026-04-25 09:49 | -37.00865 | 174.79157 | 29 ft | 21 kts | 71° |
| 2026-04-25 09:49 | -37.00815 | 174.79335 | 30 ft | 23 kts | 70° |
| 2026-04-25 09:49 | -37.00761 | 174.79524 | 30 ft | 23 kts | 71° |
| 2026-04-25 09:49 | -37.00713 | 174.79705 | 30 ft | 22 kts | 71° |
| 2026-04-25 09:50 | -37.00662 | 174.79893 | 30 ft | 24 kts | 70° |
| 2026-04-25 09:50 | -37.00560 | 174.79965 | 30 ft | 17 kts | 24° |
| 2026-04-25 09:50 | -37.00505 | 174.80089 | 30 ft | 16 kts | 72° |
| 2026-04-25 09:50 | -37.00464 | 174.80226 | 30 ft | 17 kts | 55° |
| 2026-04-25 09:51 | -37.00393 | 174.80211 | 30 ft | 9 kts | 297° |
| 2026-04-25 09:51 | -37.00396 | 174.80179 | 30 ft | 0 kts | 251° |
| 2026-04-25 09:51 | -37.00396 | 174.80178 | 30 ft | 0 kts | 253° |
| 2026-04-25 09:52 | -37.00385 | 174.80168 | 30 ft | 0 kts | 252° |